Time;durP1;ratioP1;P1;durP2;ratioP2;P2;SDS_P1;SDS_P2;PMS_P1;PMS_P2;Temp;Humidity;BMP_temperature;BMP_pressure;BME280_temperature;BME280_humidity;BME280_pressure;Samples;Min_cycle;Max_cycle;Signal;HPM_P1;HPM_P2
2023/04/24 00:01:39;;;;;;;4.60;4.20;;;15.00;99.90;;;;;;5055259;28;20912;-77
2023/04/24 00:04:06;;;;;;;5.13;4.30;;;15.00;99.90;;;;;;5072637;28;20516;-77
2023/04/24 00:06:34;;;;;;;5.80;5.30;;;15.00;99.90;;;;;;5072346;28;20506;-77
2023/04/24 00:09:02;;;;;;;5.10;4.70;;;15.00;99.90;;;;;;5073085;28;20550;-77
2023/04/24 00:11:29;;;;;;;5.30;4.50;;;15.00;99.90;;;;;;5072409;28;20976;-77
2023/04/24 00:13:57;;;;;;;5.07;4.67;;;15.00;99.90;;;;;;5072610;28;20470;-77
2023/04/24 00:16:25;;;;;;;5.57;5.07;;;15.00;99.90;;;;;;5072273;28;20772;-76
2023/04/24 00:18:54;;;;;;;5.13;4.70;;;14.90;99.90;;;;;;5073038;28;20529;-77
2023/04/24 00:21:21;;;;;;;5.10;4.80;;;14.90;99.90;;;;;;5071986;28;20999;-77
2023/04/24 00:23:48;;;;;;;5.20;4.80;;;14.90;99.90;;;;;;5072664;28;20470;-76
2023/04/24 00:26:15;;;;;;;5.50;5.10;;;14.90;99.90;;;;;;5071896;28;20804;-77
2023/04/24 00:28:42;;;;;;;5.60;5.10;;;14.90;99.90;;;;;;5072350;28;20458;-77
2023/04/24 00:31:10;;;;;;;7.57;5.50;;;14.90;99.90;;;;;;5072965;28;20478;-77
2023/04/24 00:33:37;;;;;;;5.80;5.30;;;14.90;99.90;;;;;;5071312;28;20545;-77
2023/04/24 00:36:06;;;;;;;5.00;4.53;;;14.90;99.90;;;;;;5072229;28;20758;-77
2023/04/24 00:38:41;;;;;;;6.33;5.57;;;14.90;99.90;;;;;;5072229;28;20531;-77
2023/04/24 00:41:11;;;;;;;5.50;5.00;;;14.90;99.90;;;;;;5060511;28;21024;-77
2023/04/24 00:43:38;;;;;;;7.93;4.77;;;14.80;99.90;;;;;;5090513;28;20560;-77
2023/04/24 00:46:06;;;;;;;4.37;4.07;;;14.80;99.90;;;;;;5096119;28;20794;-77
2023/04/24 00:48:40;;;;;;;5.90;5.40;;;14.80;99.90;;;;;;5092872;28;20807;-77
2023/04/24 00:51:09;;;;;;;5.20;4.80;;;14.80;99.90;;;;;;5075384;28;20950;-77
2023/04/24 00:53:36;;;;;;;5.30;4.90;;;14.70;99.90;;;;;;5075121;28;20470;-77
2023/04/24 00:56:05;;;;;;;5.23;4.83;;;14.80;99.90;;;;;;5075688;28;21047;-77
2023/04/24 00:58:33;;;;;;;4.93;4.53;;;14.80;99.90;;;;;;5075019;28;20478;-77
2023/04/24 01:01:02;;;;;;;5.70;5.30;;;14.70;99.90;;;;;;5075700;28;20549;-77
2023/04/24 01:03:32;;;;;;;5.40;5.00;;;14.70;99.90;;;;;;5057279;28;20462;-77
2023/04/24 01:06:00;;;;;;;4.13;3.83;;;14.70;99.90;;;;;;5075555;28;20464;-77
2023/04/24 01:08:30;;;;;;;4.87;4.47;;;14.80;99.90;;;;;;5075111;28;20466;-77
2023/04/24 01:10:58;;;;;;;4.87;4.43;;;14.70;99.90;;;;;;5075357;28;20474;-77
2023/04/24 01:13:25;;;;;;;5.07;4.70;;;14.70;99.90;;;;;;5074961;28;20471;-78
2023/04/24 01:15:53;;;;;;;5.20;4.80;;;14.70;99.90;;;;;;5061151;28;20540;-77
2023/04/24 01:18:21;;;;;;;5.63;5.13;;;14.70;99.90;;;;;;5044938;28;20472;-77
2023/04/24 01:20:52;;;;;;;6.13;5.63;;;14.70;99.90;;;;;;5055644;28;20766;-76
2023/04/24 01:23:20;;;;;;;6.03;5.50;;;14.60;99.90;;;;;;5055543;28;20913;-77
2023/04/24 01:25:48;;;;;;;5.37;5.00;;;14.60;99.90;;;;;;5055050;28;20491;-77
2023/04/24 01:28:19;;;;;;;5.17;4.70;;;14.60;99.90;;;;;;5055102;28;20471;-77
2023/04/24 01:30:47;;;;;;;5.27;4.77;;;14.60;99.90;;;;;;5055310;28;20550;-77
2023/04/24 01:33:14;;;;;;;6.23;5.60;;;14.60;99.90;;;;;;5054483;28;20777;-77
2023/04/24 01:35:41;;;;;;;6.63;6.13;;;14.50;99.90;;;;;;5073401;28;20475;-77
2023/04/24 01:38:08;;;;;;;6.20;5.50;;;14.60;99.90;;;;;;5075077;28;20463;-78
2023/04/24 01:40:37;;;;;;;5.97;5.37;;;14.60;99.90;;;;;;5073654;28;20536;-77
2023/04/24 01:43:04;;;;;;;5.00;4.60;;;14.60;99.90;;;;;;5075171;28;20470;-77
2023/04/24 01:45:31;;;;;;;5.47;5.00;;;14.60;99.90;;;;;;5073732;28;21002;-77
2023/04/24 01:47:58;;;;;;;5.77;5.27;;;14.60;99.90;;;;;;5073921;28;20548;-77
2023/04/24 01:50:25;;;;;;;5.73;5.23;;;14.60;99.90;;;;;;5076060;28;20554;-77
2023/04/24 01:52:53;;;;;;;6.17;5.67;;;14.60;99.90;;;;;;5074604;28;20462;-77
2023/04/24 01:55:20;;;;;;;5.50;5.10;;;14.60;99.90;;;;;;5073453;28;20475;-78
2023/04/24 01:57:48;;;;;;;4.83;4.53;;;14.60;99.90;;;;;;5073935;28;20504;-76
2023/04/24 02:00:15;;;;;;;5.03;4.70;;;14.60;99.90;;;;;;5073914;28;20494;-76
2023/04/24 02:02:55;;;;;;;5.93;5.43;;;14.60;99.90;;;;;;5073942;28;20463;-76
2023/04/24 02:05:22;;;;;;;4.97;4.63;;;14.60;99.90;;;;;;5074180;28;20624;-76
2023/04/24 02:07:49;;;;;;;5.80;5.30;;;14.60;99.90;;;;;;5073647;28;20466;-77
2023/04/24 02:10:17;;;;;;;6.20;5.60;;;14.60;99.90;;;;;;5074494;28;20497;-77
2023/04/24 02:12:43;;;;;;;5.00;4.70;;;14.60;99.90;;;;;;5073685;28;20482;-76
2023/04/24 02:15:13;;;;;;;5.10;4.73;;;14.60;99.90;;;;;;5074202;28;20478;-76
2023/04/24 02:17:40;;;;;;;5.37;4.97;;;14.60;99.90;;;;;;5073786;28;20788;-76
2023/04/24 02:20:08;;;;;;;5.60;5.10;;;14.60;99.90;;;;;;5074205;28;20990;-76
2023/04/24 02:22:36;;;;;;;5.37;4.87;;;14.60;99.90;;;;;;5073910;28;20788;-76
2023/04/24 02:25:03;;;;;;;5.60;5.20;;;14.60;99.90;;;;;;5073554;28;20465;-76
2023/04/24 02:27:30;;;;;;;5.10;4.70;;;14.60;99.90;;;;;;5074051;28;20477;-76
2023/04/24 02:29:57;;;;;;;5.40;4.90;;;14.60;99.90;;;;;;5073846;28;20482;-76
2023/04/24 02:32:26;;;;;;;5.40;4.90;;;14.60;99.90;;;;;;5074124;28;20930;-77
2023/04/24 02:34:52;;;;;;;5.57;5.10;;;14.60;99.90;;;;;;5073760;28;20474;-76
2023/04/24 02:37:20;;;;;;;5.77;5.37;;;14.60;99.90;;;;;;5073835;28;20523;-76
2023/04/24 02:39:46;;;;;;;6.47;5.80;;;14.60;99.90;;;;;;5064136;28;20789;-76
2023/04/24 02:42:13;;;;;;;5.60;5.10;;;14.70;99.90;;;;;;5074006;28;20454;-75
2023/04/24 02:44:42;;;;;;;6.20;5.80;;;14.70;99.90;;;;;;5073766;28;20874;-75
2023/04/24 02:47:10;;;;;;;5.63;5.20;;;14.70;99.90;;;;;;5073745;28;20513;-76
2023/04/24 02:49:38;;;;;;;6.80;6.30;;;14.70;99.90;;;;;;5073809;28;20490;-76
2023/04/24 02:52:05;;;;;;;6.47;5.97;;;14.70;99.90;;;;;;5073019;28;20455;-76
2023/04/24 02:54:32;;;;;;;6.57;6.00;;;14.70;99.90;;;;;;5073782;28;20945;-76
2023/04/24 02:57:01;;;;;;;6.40;6.00;;;14.70;99.90;;;;;;5073487;28;20478;-76
2023/04/24 02:59:29;;;;;;;6.17;5.70;;;14.70;99.90;;;;;;5073807;28;20470;-76
2023/04/24 03:01:56;;;;;;;7.03;6.53;;;14.60;99.90;;;;;;5061836;28;20478;-76
2023/04/24 03:04:27;;;;;;;6.87;5.60;;;14.70;99.90;;;;;;5073196;28;20777;-76
2023/04/24 03:06:56;;;;;;;6.40;5.80;;;14.70;99.90;;;;;;5073115;28;20799;-76
2023/04/24 03:09:23;;;;;;;5.80;5.30;;;14.70;99.90;;;;;;5073941;28;20458;-76
2023/04/24 03:11:50;;;;;;;5.80;5.40;;;14.70;99.90;;;;;;5073271;28;20474;-76
2023/04/24 03:14:17;;;;;;;6.30;5.90;;;14.70;99.90;;;;;;5073023;28;20519;-75
2023/04/24 03:16:44;;;;;;;5.60;5.10;;;14.60;99.90;;;;;;5073271;28;20503;-76
2023/04/24 03:19:12;;;;;;;7.73;6.90;;;14.70;99.90;;;;;;5073134;28;20528;-75
2023/04/24 03:21:40;;;;;;;6.00;5.50;;;14.70;99.90;;;;;;5073299;28;20466;-76
2023/04/24 03:24:09;;;;;;;5.90;5.50;;;14.70;99.90;;;;;;5072584;28;20559;-75
2023/04/24 03:26:36;;;;;;;6.67;6.07;;;14.70;99.90;;;;;;5073491;28;20561;-76
2023/04/24 03:29:03;;;;;;;6.80;6.10;;;14.70;99.90;;;;;;5072652;28;20473;-76
2023/04/24 03:31:30;;;;;;;5.37;5.03;;;14.70;99.90;;;;;;5072979;28;20493;-76
2023/04/24 03:33:57;;;;;;;5.27;4.87;;;14.70;99.90;;;;;;5073007;28;20467;-76
2023/04/24 03:36:25;;;;;;;6.57;6.07;;;14.70;99.90;;;;;;5072866;28;20545;-75
2023/04/24 03:38:53;;;;;;;6.40;5.90;;;14.70;99.90;;;;;;5073408;28;20470;-76
2023/04/24 03:41:22;;;;;;;6.20;5.60;;;14.70;99.90;;;;;;5072854;28;20536;-76
2023/04/24 03:43:49;;;;;;;6.60;6.10;;;14.70;99.90;;;;;;5073480;28;20470;-76
2023/04/24 03:46:16;;;;;;;6.60;6.10;;;14.70;99.90;;;;;;5073159;28;20794;-76
2023/04/24 03:48:43;;;;;;;6.63;6.13;;;14.70;99.90;;;;;;5073683;28;20474;-76
2023/04/24 03:51:10;;;;;;;6.20;5.67;;;14.70;99.90;;;;;;5072543;28;20462;-76
2023/04/24 03:53:37;;;;;;;6.80;6.30;;;14.70;99.90;;;;;;5073023;28;20469;-76
2023/04/24 03:56:04;;;;;;;6.27;5.67;;;14.70;99.90;;;;;;5071312;28;20487;-76
2023/04/24 03:58:33;;;;;;;6.30;5.70;;;14.70;99.90;;;;;;5072964;28;20838;-76
2023/04/24 04:01:00;;;;;;;7.20;6.60;;;14.70;99.90;;;;;;5072595;28;20539;-76
2023/04/24 04:03:27;;;;;;;7.70;7.10;;;14.70;99.90;;;;;;5072566;28;20458;-76
2023/04/24 04:05:54;;;;;;;6.37;5.77;;;14.70;99.90;;;;;;5072505;28;20470;-76
2023/04/24 04:08:21;;;;;;;5.80;5.30;;;14.70;99.90;;;;;;5072152;28;20994;-75
2023/04/24 04:10:48;;;;;;;8.13;6.17;;;14.70;99.90;;;;;;5072787;28;20470;-76
2023/04/24 04:13:15;;;;;;;6.47;5.97;;;14.80;99.90;;;;;;5075640;28;20528;-77
2023/04/24 04:15:44;;;;;;;6.97;6.37;;;14.80;99.90;;;;;;5087665;28;20956;-76
2023/04/24 04:18:11;;;;;;;6.93;6.33;;;14.80;99.90;;;;;;5088292;28;20509;-76
2023/04/24 04:20:38;;;;;;;5.60;5.20;;;14.80;99.90;;;;;;5091392;28;20468;-77
2023/04/24 04:23:07;;;;;;;5.53;5.03;;;14.80;99.90;;;;;;5089962;28;20466;-79
2023/04/24 04:25:34;;;;;;;5.53;5.10;;;14.80;99.90;;;;;;5090428;28;20502;-77
2023/04/24 04:28:01;;;;;;;5.87;5.47;;;14.80;99.90;;;;;;5084894;28;20496;-77
2023/04/24 04:30:32;;;;;;;5.93;5.53;;;14.80;99.90;;;;;;5078471;28;20461;-78
2023/04/24 04:33:01;;;;;;;6.10;5.60;;;14.80;99.90;;;;;;5077255;28;20492;-77
2023/04/24 04:35:28;;;;;;;6.43;5.93;;;14.80;99.90;;;;;;5076395;28;20830;-76
2023/04/24 04:37:58;;;;;;;5.97;5.37;;;14.80;99.90;;;;;;5076730;28;20477;-77
2023/04/24 04:40:26;;;;;;;5.30;4.83;;;14.80;99.90;;;;;;5065965;28;20504;-77
2023/04/24 04:42:53;;;;;;;4.97;4.60;;;14.90;99.90;;;;;;5076755;28;20564;-77
2023/04/24 04:45:21;;;;;;;5.57;5.17;;;14.90;99.90;;;;;;5065072;28;20498;-76
2023/04/24 04:47:49;;;;;;;6.73;6.13;;;14.90;99.90;;;;;;5076450;28;20465;-77
2023/04/24 04:50:19;;;;;;;5.87;5.47;;;14.80;99.90;;;;;;5075878;28;20514;-76
2023/04/24 04:52:46;;;;;;;7.27;6.23;;;14.80;99.90;;;;;;5076881;28;20458;-77
2023/04/24 04:55:14;;;;;;;5.40;4.90;;;14.70;99.90;;;;;;5075405;28;20470;-77
2023/04/24 04:57:41;;;;;;;5.00;4.60;;;14.80;99.90;;;;;;5075483;28;20464;-77
2023/04/24 05:00:11;;;;;;;5.13;4.73;;;14.80;99.90;;;;;;5075877;28;20462;-77
2023/04/24 05:02:46;;;;;;;5.33;4.93;;;14.80;99.90;;;;;;5075534;28;21276;-76
2023/04/24 05:05:14;;;;;;;5.40;4.87;;;14.80;99.90;;;;;;5075552;28;20546;-76
2023/04/24 05:07:43;;;;;;;5.50;5.00;;;14.90;99.90;;;;;;5074752;28;20465;-76
2023/04/24 05:10:10;;;;;;;5.33;4.83;;;14.80;99.90;;;;;;5075726;28;20466;-77
2023/04/24 05:12:38;;;;;;;5.40;4.90;;;14.90;99.90;;;;;;5074410;28;20462;-77
2023/04/24 05:15:05;;;;;;;4.87;4.37;;;14.90;99.90;;;;;;5075661;28;20474;-77
2023/04/24 05:17:32;;;;;;;4.70;4.40;;;14.90;99.90;;;;;;5074316;28;20539;-77
2023/04/24 05:20:00;;;;;;;4.47;4.07;;;15.00;99.90;;;;;;5075274;28;20490;-77
2023/04/24 05:22:27;;;;;;;5.00;4.50;;;15.00;99.90;;;;;;5076940;28;20470;-77
2023/04/24 05:24:55;;;;;;;4.90;4.60;;;15.00;99.90;;;;;;5078134;28;20577;-77
2023/04/24 05:27:22;;;;;;;4.27;3.97;;;15.10;99.90;;;;;;5075630;28;20482;-77
2023/04/24 05:29:49;;;;;;;4.50;4.20;;;15.10;99.90;;;;;;5075167;28;20467;-77
2023/04/24 05:32:16;;;;;;;5.00;4.30;;;15.10;99.90;;;;;;5064327;28;20474;-77
2023/04/24 05:34:43;;;;;;;4.17;3.77;;;15.10;99.90;;;;;;5074387;28;20534;-76
2023/04/24 05:37:12;;;;;;;4.63;4.23;;;15.10;99.90;;;;;;5074991;28;20470;-76
2023/04/24 05:39:43;;;;;;;5.20;3.97;;;15.10;99.90;;;;;;5074358;28;20494;-76
2023/04/24 05:42:11;;;;;;;4.50;4.10;;;15.10;99.90;;;;;;5074974;28;20527;-76
2023/04/24 05:44:38;;;;;;;6.00;5.50;;;15.10;99.90;;;;;;5074256;28;20509;-77
2023/04/24 05:47:05;;;;;;;6.33;5.73;;;15.10;99.90;;;;;;5074916;28;20550;-76
2023/04/24 05:49:32;;;;;;;3.70;3.40;;;15.10;99.90;;;;;;5074241;28;20470;-76
2023/04/24 05:51:59;;;;;;;4.00;3.50;;;15.10;99.90;;;;;;5074685;28;20777;-76
2023/04/24 05:54:26;;;;;;;3.53;3.23;;;15.10;99.90;;;;;;5073633;28;20550;-77
2023/04/24 05:56:54;;;;;;;7.73;5.63;;;15.20;99.90;;;;;;5074300;28;21029;-77
2023/04/24 05:59:22;;;;;;;8.20;4.90;;;15.20;99.90;;;;;;5074461;28;20477;-77
2023/04/24 06:01:49;;;;;;;5.40;4.97;;;15.10;99.90;;;;;;5073996;28;20471;-77
2023/04/24 06:04:16;;;;;;;6.37;5.77;;;15.10;99.90;;;;;;5074406;28;20470;-77
2023/04/24 06:06:43;;;;;;;4.40;4.00;;;15.20;99.90;;;;;;5073991;28;20793;-77
2023/04/24 06:09:11;;;;;;;6.00;3.70;;;15.20;99.90;;;;;;5073166;28;20470;-77
2023/04/24 06:11:38;;;;;;;5.50;3.90;;;15.20;99.90;;;;;;5073497;28;20470;-75
2023/04/24 06:14:06;;;;;;;4.70;4.30;;;15.20;99.90;;;;;;5073676;28;20959;-77
2023/04/24 06:16:34;;;;;;;3.70;3.40;;;15.20;99.90;;;;;;5073156;28;20542;-77
2023/04/24 06:19:01;;;;;;;5.23;4.73;;;15.30;99.90;;;;;;5074330;28;20470;-77
2023/04/24 06:21:28;;;;;;;4.80;3.40;;;15.40;99.90;;;;;;5073491;28;20801;-77
2023/04/24 06:23:55;;;;;;;3.47;3.17;;;15.40;99.90;;;;;;5073970;28;20947;-77
2023/04/24 06:26:24;;;;;;;3.23;2.93;;;15.30;99.90;;;;;;5073526;28;20811;-77
2023/04/24 06:28:51;;;;;;;3.77;3.47;;;15.30;99.90;;;;;;5074135;28;20465;-77
2023/04/24 06:31:19;;;;;;;4.57;4.17;;;15.30;99.90;;;;;;5071885;28;20496;-77
2023/04/24 06:33:47;;;;;;;3.90;3.43;;;15.40;99.90;;;;;;5073080;28;20462;-76
2023/04/24 06:36:14;;;;;;;7.30;4.07;;;15.40;99.90;;;;;;5071886;28;20585;-76
2023/04/24 06:38:41;;;;;;;2.67;2.47;;;15.40;99.90;;;;;;5073101;28;20987;-76
2023/04/24 06:41:08;;;;;;;2.60;2.40;;;15.50;99.90;;;;;;5073509;28;20959;-76
2023/04/24 06:43:35;;;;;;;3.47;3.17;;;15.60;99.90;;;;;;5072372;28;20808;-75
2023/04/24 06:46:03;;;;;;;3.60;2.50;;;15.70;99.90;;;;;;5073457;28;20480;-76
2023/04/24 06:48:30;;;;;;;2.67;2.47;;;15.80;99.90;;;;;;5073725;28;20960;-76
2023/04/24 06:50:59;;;;;;;2.60;2.40;;;15.90;99.90;;;;;;5064146;28;20594;-77
2023/04/24 06:53:26;;;;;;;2.90;2.00;;;16.00;99.90;;;;;;5072327;28;20573;-77
2023/04/24 06:55:53;;;;;;;4.10;2.43;;;16.10;99.90;;;;;;5073196;28;20470;-76
2023/04/24 06:58:20;;;;;;;5.80;2.37;;;16.20;99.90;;;;;;5073164;28;20474;-76
2023/04/24 07:00:47;;;;;;;3.10;2.80;;;16.20;99.90;;;;;;5073884;28;20470;-76
2023/04/24 07:03:17;;;;;;;1.97;1.87;;;16.30;99.90;;;;;;5073737;28;20474;-76
2023/04/24 07:05:47;;;;;;;3.43;2.13;;;16.40;99.90;;;;;;5071953;28;20481;-77
2023/04/24 07:08:17;;;;;;;1.70;1.60;;;16.40;99.90;;;;;;5072115;28;20789;-77
2023/04/24 07:10:44;;;;;;;2.13;1.60;;;16.60;99.90;;;;;;5072735;28;20819;-77
2023/04/24 07:13:10;;;;;;;2.40;2.20;;;16.70;99.90;;;;;;5072503;28;20559;-76
2023/04/24 07:15:41;;;;;;;2.67;2.07;;;16.70;99.90;;;;;;5072883;28;20562;-76
2023/04/24 07:18:08;;;;;;;3.63;2.40;;;16.70;99.90;;;;;;5072415;28;20501;-76
2023/04/24 07:20:35;;;;;;;2.70;2.33;;;16.90;99.90;;;;;;5072949;28;20796;-77
2023/04/24 07:23:05;;;;;;;4.50;1.90;;;16.90;99.90;;;;;;5072656;28;20950;-77
2023/04/24 07:25:33;;;;;;;1.60;1.50;;;17.00;99.90;;;;;;5073601;28;20540;-77
2023/04/24 07:28:01;;;;;;;1.40;1.30;;;17.10;99.90;;;;;;5072487;28;21044;-76
2023/04/24 07:30:29;;;;;;;2.20;1.97;;;17.10;99.90;;;;;;5072832;28;20501;-77
2023/04/24 07:32:56;;;;;;;1.73;1.63;;;17.20;99.90;;;;;;5072457;28;20474;-77
2023/04/24 07:35:25;;;;;;;1.40;1.20;;;17.30;99.90;;;;;;5072687;28;20485;-77
2023/04/24 07:37:52;;;;;;;1.70;1.60;;;17.40;99.90;;;;;;5071948;28;20956;-77
2023/04/24 07:40:22;;;;;;;1.77;1.67;;;17.50;99.90;;;;;;5072749;28;20494;-76
2023/04/24 07:42:50;;;;;;;1.60;1.50;;;17.50;99.90;;;;;;5071824;28;20504;-76
2023/04/24 07:45:18;;;;;;;1.70;1.60;;;17.60;99.90;;;;;;5072425;28;21050;-76
2023/04/24 07:47:45;;;;;;;2.80;1.40;;;17.60;99.90;;;;;;5072515;28;20854;-77
2023/04/24 07:50:13;;;;;;;2.00;1.73;;;17.70;99.90;;;;;;5072254;28;20469;-76
2023/04/24 07:52:40;;;;;;;1.47;1.37;;;17.80;99.90;;;;;;5072692;28;20491;-76
2023/04/24 07:55:08;;;;;;;1.33;1.10;;;17.80;99.90;;;;;;5074512;28;20977;-77
2023/04/24 07:57:35;;;;;;;1.00;0.90;;;17.70;99.90;;;;;;5076637;28;20467;-77
2023/04/24 08:00:05;;;;;;;1.27;1.17;;;17.70;99.90;;;;;;5076422;28;20476;-76
2023/04/24 08:02:33;;;;;;;2.23;2.03;;;17.80;99.90;;;;;;5076747;28;20462;-76
2023/04/24 08:05:03;;;;;;;5.93;3.33;;;17.80;99.90;;;;;;5068312;28;20528;-76
2023/04/24 08:07:30;;;;;;;1.63;1.30;;;17.90;99.90;;;;;;5075275;28;20930;-76
2023/04/24 08:09:57;;;;;;;2.27;1.63;;;17.90;99.90;;;;;;5076157;28;20466;-76
2023/04/24 08:12:24;;;;;;;1.20;0.93;;;18.00;99.90;;;;;;5076670;28;20466;-76
2023/04/24 08:14:51;;;;;;;1.30;1.20;;;18.00;99.90;;;;;;5075508;28;20508;-77
2023/04/24 08:17:20;;;;;;;2.00;1.07;;;18.00;99.90;;;;;;5076468;28;20512;-76
2023/04/24 08:19:48;;;;;;;1.60;1.40;;;18.10;99.90;;;;;;5075480;28;20488;-76
2023/04/24 08:22:15;;;;;;;1.63;1.20;;;18.20;99.90;;;;;;5075800;28;20462;-76
2023/04/24 08:24:43;;;;;;;1.63;1.47;;;18.20;99.90;;;;;;5077105;28;20940;-76
2023/04/24 08:27:11;;;;;;;1.40;1.30;;;18.20;99.90;;;;;;5074400;28;20474;-75
2023/04/24 08:29:39;;;;;;;1.10;1.00;;;18.20;99.90;;;;;;5076515;28;20512;-76
2023/04/24 08:32:06;;;;;;;1.43;1.10;;;18.10;99.90;;;;;;5076363;28;20964;-76
2023/04/24 08:34:35;;;;;;;2.50;1.63;;;18.20;99.90;;;;;;5075472;28;20486;-77
2023/04/24 08:37:02;;;;;;;1.30;1.20;;;18.30;99.90;;;;;;5075587;28;20504;-76
2023/04/24 08:39:30;;;;;;;1.60;1.50;;;18.30;99.90;;;;;;5067711;28;20462;-76
2023/04/24 08:41:57;;;;;;;2.00;1.80;;;18.30;99.90;;;;;;5074495;28;20496;-77
2023/04/24 08:44:24;;;;;;;3.13;2.87;;;18.40;99.90;;;;;;5075142;28;20512;-76
2023/04/24 08:46:51;;;;;;;1.13;0.93;;;18.50;99.90;;;;;;5075929;28;20784;-77
2023/04/24 08:49:19;;;;;;;1.63;1.50;;;18.40;99.90;;;;;;5074963;28;20466;-76
2023/04/24 08:51:49;;;;;;;1.00;0.90;;;18.40;99.90;;;;;;5075568;28;20516;-76
2023/04/24 08:54:16;;;;;;;1.83;0.90;;;18.40;99.90;;;;;;5074941;28;20473;-75
2023/04/24 08:56:46;;;;;;;1.73;1.30;;;18.40;99.90;;;;;;5075303;28;20592;-76
2023/04/24 08:59:14;;;;;;;1.03;0.93;;;18.50;99.90;;;;;;5074815;28;20484;-76
2023/04/24 09:01:41;;;;;;;1.40;1.20;;;18.50;99.90;;;;;;5075489;28;20466;-75
2023/04/24 09:04:15;;;;;;;2.00;1.80;;;18.60;99.90;;;;;;5075140;28;20527;-77
2023/04/24 09:06:42;;;;;;;1.20;1.10;;;18.60;99.90;;;;;;5075580;28;20940;-77
2023/04/24 09:09:12;;;;;;;1.43;1.30;;;18.70;99.90;;;;;;5075511;28;20474;-77
2023/04/24 09:11:39;;;;;;;2.07;1.30;;;18.70;99.90;;;;;;5075819;28;20528;-77
2023/04/24 09:14:08;;;;;;;2.87;1.47;;;18.70;99.90;;;;;;5073834;28;20561;-78
2023/04/24 09:16:35;;;;;;;1.60;1.50;;;18.80;99.90;;;;;;5075073;28;20470;-77
2023/04/24 09:19:02;;;;;;;1.30;1.20;;;18.80;99.90;;;;;;5074894;28;20467;-77
2023/04/24 09:21:34;;;;;;;2.13;1.40;;;18.80;99.90;;;;;;5074199;28;20494;-77
2023/04/24 09:24:06;;;;;;;1.67;1.30;;;18.80;99.90;;;;;;5076913;28;20470;-77
2023/04/24 09:26:37;;;;;;;1.50;1.20;;;18.80;99.90;;;;;;5074922;28;20462;-77
2023/04/24 09:29:05;;;;;;;1.87;1.37;;;18.80;99.90;;;;;;5074720;28;20952;-78
2023/04/24 09:31:35;;;;;;;1.90;1.70;;;18.80;99.90;;;;;;5074494;28;20553;-77
2023/04/24 09:34:05;;;;;;;1.80;1.60;;;18.80;99.90;;;;;;5075008;28;20478;-77
2023/04/24 09:36:33;;;;;;;2.03;1.33;;;18.80;99.90;;;;;;5074460;28;20474;-77
2023/04/24 09:39:02;;;;;;;2.33;1.50;;;18.80;99.90;;;;;;5075141;28;20466;-77
2023/04/24 09:41:30;;;;;;;1.50;1.37;;;18.90;99.90;;;;;;5074512;28;20495;-77
2023/04/24 09:44:12;;;;;;;2.10;1.90;;;18.90;99.90;;;;;;5062723;28;20874;-77
2023/04/24 09:46:39;;;;;;;1.63;1.10;;;18.70;99.90;;;;;;5063410;28;20528;-77
2023/04/24 09:49:15;;;;;;;2.90;1.30;;;18.70;99.90;;;;;;5074750;28;20490;-77
2023/04/24 09:51:42;;;;;;;1.70;1.27;;;18.70;99.90;;;;;;5074205;28;20481;-77
2023/04/24 09:54:25;;;;;;;2.60;1.33;;;18.70;99.90;;;;;;5074398;28;21104;-77
2023/04/24 09:56:52;;;;;;;4.33;1.47;;;18.70;99.90;;;;;;5074182;28;20936;-77
2023/04/24 09:59:22;;;;;;;2.20;1.40;;;18.60;99.90;;;;;;5074667;28;20493;-78
2023/04/24 10:01:50;;;;;;;3.80;1.23;;;18.60;99.90;;;;;;5073775;28;20462;-77
2023/04/24 10:04:20;;;;;;;1.63;1.23;;;18.70;99.90;;;;;;5075197;28;20467;-77
2023/04/24 10:06:49;;;;;;;1.50;1.20;;;18.70;99.90;;;;;;5064727;28;20543;-76
2023/04/24 10:09:17;;;;;;;2.50;1.83;;;18.80;99.90;;;;;;5074646;28;20463;-76
2023/04/24 10:11:46;;;;;;;1.00;0.90;;;18.80;99.90;;;;;;5073549;28;21056;-77
2023/04/24 10:14:17;;;;;;;1.30;1.13;;;18.90;99.90;;;;;;5074787;28;20512;-75
2023/04/24 10:16:47;;;;;;;2.37;1.20;;;19.00;99.90;;;;;;5072940;28;20478;-76
2023/04/24 10:19:18;;;;;;;1.50;1.07;;;19.10;99.90;;;;;;5063400;28;20462;-76
2023/04/24 10:21:47;;;;;;;6.10;4.90;;;19.10;99.90;;;;;;5073181;28;20482;-77
2023/04/24 10:24:15;;;;;;;2.17;1.63;;;19.20;99.90;;;;;;5074309;28;20845;-77
2023/04/24 10:26:42;;;;;;;1.50;1.40;;;19.30;99.90;;;;;;5073375;28;20478;-76
2023/04/24 10:29:12;;;;;;;1.27;1.17;;;19.30;99.90;;;;;;5073152;28;20474;-77
2023/04/24 10:31:40;;;;;;;2.43;2.20;;;19.40;99.90;;;;;;5072296;28;20485;-77
2023/04/24 10:34:10;;;;;;;1.00;1.00;;;19.40;99.90;;;;;;5074166;28;20466;-76
2023/04/24 10:36:42;;;;;;;1.33;1.23;;;19.30;99.90;;;;;;5073475;28;20866;-77
2023/04/24 10:39:13;;;;;;;1.53;1.10;;;19.30;99.90;;;;;;5074002;28;20466;-76
2023/04/24 10:41:40;;;;;;;4.93;1.77;;;19.30;99.90;;;;;;5073232;28;20473;-76
2023/04/24 10:44:10;;;;;;;1.27;1.17;;;19.30;99.90;;;;;;5073146;28;20951;-75
2023/04/24 10:46:38;;;;;;;3.43;1.83;;;19.20;99.90;;;;;;5073180;28;20501;-78
2023/04/24 10:49:08;;;;;;;3.53;1.73;;;19.20;99.90;;;;;;5073529;28;20605;-77
2023/04/24 10:51:47;;;;;;;5.20;2.53;;;19.10;99.90;;;;;;5073240;28;20502;-75
2023/04/24 10:54:25;;;;;;;1.70;1.50;;;19.10;99.90;;;;;;5073608;28;20531;-75
2023/04/24 10:56:52;;;;;;;2.13;1.30;;;19.10;99.90;;;;;;5073234;28;20474;-77
2023/04/24 10:59:27;;;;;;;2.90;1.30;;;19.00;99.90;;;;;;5073477;28;20509;-75
2023/04/24 11:01:55;;;;;;;2.70;1.33;;;19.00;99.90;;;;;;5071865;28;20556;-76
2023/04/24 11:04:32;;;;;;;2.17;1.23;;;19.00;99.90;;;;;;5073041;28;20470;-76
2023/04/24 11:07:00;;;;;;;1.40;1.30;;;19.00;99.90;;;;;;5072793;28;20485;-76
2023/04/24 11:09:29;;;;;;;2.40;2.03;;;19.00;99.90;;;;;;5072659;28;20471;-77
2023/04/24 11:12:10;;;;;;;3.90;1.70;;;19.00;99.90;;;;;;5071554;28;20470;-77
2023/04/24 11:18:04;;;;;;;4.83;1.47;;;19.10;99.80;;;;;;5058947;28;20805;-76
2023/04/24 11:20:32;;;;;;;3.23;1.77;;;19.10;99.80;;;;;;5072511;28;20554;-77
2023/04/24 11:23:06;;;;;;;4.00;3.60;;;19.20;99.90;;;;;;5073302;28;20462;-77
2023/04/24 11:25:33;;;;;;;2.23;1.70;;;19.30;99.90;;;;;;5072405;28;20494;-77
2023/04/24 11:28:07;;;;;;;1.63;1.53;;;19.40;99.90;;;;;;5072876;28;20470;-77
2023/04/24 11:30:35;;;;;;;2.00;1.10;;;19.50;99.90;;;;;;5071837;28;20613;-76
2023/04/24 11:33:07;;;;;;;3.03;1.87;;;19.40;99.50;;;;;;5072828;28;20971;-76
2023/04/24 11:35:43;;;;;;;1.43;1.20;;;19.50;99.50;;;;;;5070452;28;20908;-77
2023/04/24 11:38:11;;;;;;;1.60;1.30;;;19.40;99.90;;;;;;5072448;28;20517;-76
2023/04/24 11:40:39;;;;;;;1.50;1.40;;;19.40;99.90;;;;;;5063096;28;20860;-76
2023/04/24 11:43:07;;;;;;;2.73;1.70;;;19.30;99.90;;;;;;5072977;28;20466;-75
2023/04/24 11:45:34;;;;;;;5.53;3.27;;;19.20;99.90;;;;;;5072118;28;20963;-76
2023/04/24 11:48:01;;;;;;;2.80;1.80;;;19.10;99.90;;;;;;5072895;28;20470;-76
2023/04/24 11:50:29;;;;;;;3.00;1.70;;;19.00;99.90;;;;;;5071041;28;20948;-75
2023/04/24 11:52:57;;;;;;;3.17;1.60;;;18.80;99.90;;;;;;5072572;28;20786;-77
2023/04/24 11:55:27;;;;;;;1.20;1.10;;;18.70;99.90;;;;;;5073305;28;20466;-76
2023/04/24 11:57:57;;;;;;;1.40;1.30;;;18.60;99.90;;;;;;5072349;28;20458;-76
2023/04/24 12:00:26;;;;;;;2.43;1.70;;;18.40;99.90;;;;;;5072011;28;20817;-76
2023/04/24 12:03:07;;;;;;;1.20;1.10;;;18.40;99.90;;;;;;5075139;28;20462;-76
2023/04/24 12:05:35;;;;;;;1.30;1.20;;;18.30;99.90;;;;;;5074710;28;20462;-76
2023/04/24 12:08:08;;;;;;;2.03;1.30;;;18.30;99.90;;;;;;5072469;28;20470;-76
2023/04/24 12:10:36;;;;;;;3.37;1.20;;;18.30;99.90;;;;;;5062756;28;20482;-76
2023/04/24 12:13:03;;;;;;;2.30;1.23;;;18.30;99.90;;;;;;5071997;28;20471;-76
2023/04/24 12:15:31;;;;;;;1.53;1.30;;;18.30;99.90;;;;;;5071986;28;20474;-78
2023/04/24 12:17:58;;;;;;;1.47;1.37;;;18.30;99.90;;;;;;5072063;28;20983;-77
2023/04/24 12:20:27;;;;;;;1.87;1.67;;;18.40;99.90;;;;;;5071856;28;20532;-77
2023/04/24 12:22:55;;;;;;;1.80;1.33;;;18.50;99.90;;;;;;5071976;28;20680;-77
2023/04/24 12:25:25;;;;;;;2.37;1.57;;;18.50;99.90;;;;;;5071302;28;20952;-77
2023/04/24 12:27:55;;;;;;;1.87;1.37;;;18.50;99.90;;;;;;5071774;28;20498;-77
2023/04/24 12:30:28;;;;;;;1.30;1.20;;;18.60;99.90;;;;;;5072100;28;20466;-77
2023/04/24 12:32:58;;;;;;;1.43;1.33;;;18.60;99.90;;;;;;5070273;28;20482;-77
2023/04/24 12:35:27;;;;;;;1.50;1.17;;;18.70;99.90;;;;;;5071631;28;20998;-76
2023/04/24 12:37:54;;;;;;;1.33;1.00;;;18.70;99.90;;;;;;5071824;28;20480;-76
2023/04/24 12:40:25;;;;;;;1.20;1.10;;;18.80;99.90;;;;;;5061158;28;20581;-76
2023/04/24 12:42:56;;;;;;;2.07;1.20;;;18.80;99.90;;;;;;5074948;28;20488;-76
2023/04/24 12:45:25;;;;;;;2.90;1.10;;;19.00;99.90;;;;;;5075187;28;20462;-76
2023/04/24 12:47:52;;;;;;;1.97;1.53;;;19.00;99.20;;;;;;5075316;28;20967;-77
2023/04/24 12:50:19;;;;;;;2.87;1.50;;;19.10;96.70;;;;;;5064765;28;20504;-76
2023/04/24 12:55:34;;;;;;;1.80;1.27;;;19.20;94.40;;;;;;5072243;28;20859;-77
2023/04/24 12:58:02;;;;;;;2.27;1.40;;;19.20;93.60;;;;;;5073407;28;20458;-77
2023/04/24 13:00:31;;;;;;;1.50;1.13;;;19.20;92.10;;;;;;5075630;28;20579;-77